Overview Statistics Trail Chart Weather Telemetry Raw packets
 

This is the latest recevied weather packets stored in our database for station/object N7ZEF. If no packets are shown the sender has not sent any weather packets the latest 10 day(s).

<< 20 21 22 23 24 25 26 >>
Time Temp. Humidity Pressure Rain* Wind** Luminosity Snow
1777862497 13.89° C 24% 1012.6 hPa 0 mm - - -
1777861895 14.44° C 23% 1012.4 hPa 0 mm - - -
1777861294 15° C 22% 1012.3 hPa 0 mm - - -
1777860693 15° C 21% 1012.3 hPa 0 mm - - -
1777860091 16.11° C 20% 1012.4 hPa 0 mm - - -
1777859490 16.11° C 18% 1012.4 hPa 0 mm - - -
1777858888 16.11° C 18% 1012.3 hPa 0 mm - - -
1777858287 16.11° C 17% 1012.3 hPa 0 mm - - -
1777857686 16.67° C 17% 1012.4 hPa 0 mm - - -
1777857084 17.22° C 15% 1012.4 hPa 0 mm - - -
1777856483 17.78° C 14% 1012.6 hPa 0 mm - - -
1777855881 18.89° C 12% 1012.6 hPa 0 mm - - -
1777855280 18.89° C 11% 1012.7 hPa 0 mm - - -
1777854679 18.89° C 11% 1012.8 hPa 0 mm - - -
1777854077 19.44° C 10% 1013 hPa 0 mm - - -
1777853476 19.44° C 10% 1013.1 hPa 0 mm - - -
1777852874 19.44° C 11% 1013.1 hPa 0 mm - - -
1777852273 18.89° C 13% 1013.2 hPa 0 mm - - -
1777851672 18.89° C 11% 1013.3 hPa 0 mm - - -
1777851070 18.89° C 14% 1013.5 hPa 0 mm - - -
1777850487 19.44° C 13% 1013.6 hPa 0 mm - - -
1777849869 18.89° C 14% 1013.7 hPa 0 mm - - -
1777849266 19.44° C 14% 1013.8 hPa 0 mm - - -
1777848665 20° C 13% 1014 hPa 0 mm - - -
1777848062 20.56° C 13% 1014 hPa 0 mm - - -

* Rain latest hour (hover to see other rain measurements)
** Current wind speed in m/s (hover to see current wind gust speed)